sensor_id;sensor_type;location;lat;lon;timestamp;pressure;altitude;pressure_sealevel;temperature;humidity
1736;BME280;865;53.672;10.250;2022-09-09T00:01:52;100473.88;;;13.32;100.00
1736;BME280;865;53.672;10.250;2022-09-09T00:04:26;100472.75;;;13.39;100.00
1736;BME280;865;53.672;10.250;2022-09-09T00:07:06;100467.75;;;13.33;100.00
1736;BME280;865;53.672;10.250;2022-09-09T00:12:34;100463.19;;;13.38;100.00
1736;BME280;865;53.672;10.250;2022-09-09T00:15:07;100469.13;;;13.43;100.00
1736;BME280;865;53.672;10.250;2022-09-09T00:18:03;100463.84;;;13.44;100.00
1736;BME280;865;53.672;10.250;2022-09-09T00:20:58;100464.78;;;13.42;100.00
1736;BME280;865;53.672;10.250;2022-09-09T00:23:31;100466.56;;;13.41;100.00
1736;BME280;865;53.672;10.250;2022-09-09T00:26:04;100471.59;;;13.48;100.00
1736;BME280;865;53.672;10.250;2022-09-09T00:28:39;100469.94;;;13.45;100.00
1736;BME280;865;53.672;10.250;2022-09-09T00:31:16;100453.91;;;13.53;100.00
1736;BME280;865;53.672;10.250;2022-09-09T00:33:46;100463.31;;;13.58;100.00
1736;BME280;865;53.672;10.250;2022-09-09T00:36:14;100455.44;;;13.58;100.00
1736;BME280;865;53.672;10.250;2022-09-09T00:39:02;100458.41;;;13.49;100.00
1736;BME280;865;53.672;10.250;2022-09-09T00:41:48;100463.53;;;13.52;100.00
1736;BME280;865;53.672;10.250;2022-09-09T00:44:20;100457.34;;;13.55;100.00
1736;BME280;865;53.672;10.250;2022-09-09T00:47:19;100465.66;;;13.66;100.00
1736;BME280;865;53.672;10.250;2022-09-09T00:49:57;100459.69;;;13.62;100.00
1736;BME280;865;53.672;10.250;2022-09-09T00:52:46;100461.03;;;13.73;100.00
1736;BME280;865;53.672;10.250;2022-09-09T00:55:21;100463.16;;;13.63;100.00
1736;BME280;865;53.672;10.250;2022-09-09T00:57:52;100458.06;;;13.58;100.00
1736;BME280;865;53.672;10.250;2022-09-09T01:00:28;100451.75;;;13.64;100.00
1736;BME280;865;53.672;10.250;2022-09-09T01:06:13;100459.69;;;13.62;100.00
1736;BME280;865;53.672;10.250;2022-09-09T01:17:11;100452.72;;;13.61;100.00
1736;BME280;865;53.672;10.250;2022-09-09T01:22:28;100450.06;;;13.63;100.00
1736;BME280;865;53.672;10.250;2022-09-09T01:28:05;100440.81;;;13.53;100.00
1736;BME280;865;53.672;10.250;2022-09-09T01:30:38;100446.34;;;13.68;100.00
1736;BME280;865;53.672;10.250;2022-09-09T01:33:05;100438.59;;;13.65;100.00
1736;BME280;865;53.672;10.250;2022-09-09T01:35:53;100444.16;;;13.56;100.00
1736;BME280;865;53.672;10.250;2022-09-09T01:38:22;100440.03;;;13.51;100.00
1736;BME280;865;53.672;10.250;2022-09-09T01:40:50;100438.03;;;13.57;100.00
1736;BME280;865;53.672;10.250;2022-09-09T01:43:20;100447.78;;;13.54;100.00
1736;BME280;865;53.672;10.250;2022-09-09T01:45:48;100450.41;;;13.54;100.00
1736;BME280;865;53.672;10.250;2022-09-09T01:48:16;100441.16;;;13.43;100.00
1736;BME280;865;53.672;10.250;2022-09-09T01:50:43;100443.03;;;13.40;100.00
1736;BME280;865;53.672;10.250;2022-09-09T01:53:11;100439.38;;;13.44;100.00
1736;BME280;865;53.672;10.250;2022-09-09T01:55:39;100443.75;;;13.43;100.00
1736;BME280;865;53.672;10.250;2022-09-09T02:00:37;100447.69;;;13.32;100.00
1736;BME280;865;53.672;10.250;2022-09-09T02:03:26;100447.00;;;13.27;100.00
1736;BME280;865;53.672;10.250;2022-09-09T02:06:06;100445.16;;;13.29;100.00
1736;BME280;865;53.672;10.250;2022-09-09T02:08:45;100440.56;;;13.35;100.00
1736;BME280;865;53.672;10.250;2022-09-09T02:11:15;100442.91;;;13.43;100.00
1736;BME280;865;53.672;10.250;2022-09-09T02:13:44;100441.88;;;13.22;100.00
1736;BME280;865;53.672;10.250;2022-09-09T02:16:21;100443.25;;;13.34;100.00
1736;BME280;865;53.672;10.250;2022-09-09T02:18:54;100434.44;;;13.36;100.00
1736;BME280;865;53.672;10.250;2022-09-09T02:21:23;100442.56;;;13.29;100.00
1736;BME280;865;53.672;10.250;2022-09-09T02:23:52;100441.81;;;13.23;100.00
1736;BME280;865;53.672;10.250;2022-09-09T02:26:21;100443.78;;;13.18;100.00
1736;BME280;865;53.672;10.250;2022-09-09T02:28:50;100447.06;;;13.23;100.00
1736;BME280;865;53.672;10.250;2022-09-09T02:31:18;100440.88;;;13.26;100.00
1736;BME280;865;53.672;10.250;2022-09-09T02:33:52;100433.00;;;13.28;100.00
1736;BME280;865;53.672;10.250;2022-09-09T02:36:22;100434.81;;;13.26;100.00
1736;BME280;865;53.672;10.250;2022-09-09T02:38:50;100437.47;;;13.24;100.00
1736;BME280;865;53.672;10.250;2022-09-09T02:41:23;100442.63;;;13.27;100.00
1736;BME280;865;53.672;10.250;2022-09-09T02:43:50;100436.56;;;13.23;100.00
1736;BME280;865;53.672;10.250;2022-09-09T02:46:23;100437.69;;;13.18;100.00
1736;BME280;865;53.672;10.250;2022-09-09T02:49:16;100442.03;;;13.17;100.00
1736;BME280;865;53.672;10.250;2022-09-09T02:54:37;100442.50;;;13.30;100.00
1736;BME280;865;53.672;10.250;2022-09-09T02:59:34;100444.22;;;13.31;100.00
1736;BME280;865;53.672;10.250;2022-09-09T03:02:00;100452.13;;;13.30;100.00
1736;BME280;865;53.672;10.250;2022-09-09T03:04:27;100437.94;;;13.35;100.00
1736;BME280;865;53.672;10.250;2022-09-09T03:06:53;100438.41;;;13.21;100.00
1736;BME280;865;53.672;10.250;2022-09-09T03:09:20;100442.16;;;13.14;100.00
1736;BME280;865;53.672;10.250;2022-09-09T03:11:46;100441.25;;;13.15;100.00
1736;BME280;865;53.672;10.250;2022-09-09T03:14:12;100444.53;;;13.20;100.00
1736;BME280;865;53.672;10.250;2022-09-09T03:16:39;100447.06;;;13.23;100.00
1736;BME280;865;53.672;10.250;2022-09-09T03:19:05;100447.84;;;13.27;100.00
1736;BME280;865;53.672;10.250;2022-09-09T03:21:32;100449.75;;;13.22;100.00
1736;BME280;865;53.672;10.250;2022-09-09T03:23:58;100453.44;;;13.16;100.00
1736;BME280;865;53.672;10.250;2022-09-09T03:26:25;100449.03;;;13.17;100.00
1736;BME280;865;53.672;10.250;2022-09-09T03:28:51;100449.00;;;13.18;100.00
1736;BME280;865;53.672;10.250;2022-09-09T03:31:18;100444.53;;;13.20;100.00
1736;BME280;865;53.672;10.250;2022-09-09T03:33:45;100444.44;;;13.25;100.00
1736;BME280;865;53.672;10.250;2022-09-09T03:36:12;100450.59;;;13.22;100.00
1736;BME280;865;53.672;10.250;2022-09-09T03:38:38;100451.44;;;13.23;100.00
1736;BME280;865;53.672;10.250;2022-09-09T03:41:04;100446.44;;;13.17;100.00
1736;BME280;865;53.672;10.250;2022-09-09T03:43:34;100448.16;;;13.18;100.00
1736;BME280;865;53.672;10.250;2022-09-09T03:46:00;100449.78;;;13.20;100.00
1736;BME280;865;53.672;10.250;2022-09-09T03:48:27;100438.63;;;13.15;100.00
1736;BME280;865;53.672;10.250;2022-09-09T03:50:55;100446.50;;;13.15;100.00
1736;BME280;865;53.672;10.250;2022-09-09T03:53:24;100449.22;;;13.12;100.00
1736;BME280;865;53.672;10.250;2022-09-09T03:55:53;100449.13;;;13.15;100.00
1736;BME280;865;53.672;10.250;2022-09-09T03:58:22;100457.44;;;13.02;100.00
1736;BME280;865;53.672;10.250;2022-09-09T04:03:21;100452.72;;;13.11;100.00
1736;BME280;865;53.672;10.250;2022-09-09T04:05:54;100449.44;;;13.06;100.00
1736;BME280;865;53.672;10.250;2022-09-09T04:08:22;100456.38;;;13.07;100.00
1736;BME280;865;53.672;10.250;2022-09-09T04:10:49;100458.84;;;13.12;100.00
1736;BME280;865;53.672;10.250;2022-09-09T04:13:16;100458.88;;;13.10;100.00
1736;BME280;865;53.672;10.250;2022-09-09T04:15:44;100459.44;;;12.93;100.00
1736;BME280;865;53.672;10.250;2022-09-09T04:18:16;100459.34;;;12.96;100.00
1736;BME280;865;53.672;10.250;2022-09-09T04:20:49;100463.63;;;12.99;100.00
1736;BME280;865;53.672;10.250;2022-09-09T04:23:17;100464.56;;;12.98;100.00
1736;BME280;865;53.672;10.250;2022-09-09T04:25:49;100460.34;;;12.94;100.00
1736;BME280;865;53.672;10.250;2022-09-09T04:28:17;100478.50;;;12.98;100.00
1736;BME280;865;53.672;10.250;2022-09-09T04:30:44;100472.81;;;12.86;100.00
1736;BME280;865;53.672;10.250;2022-09-09T04:33:11;100478.75;;;12.91;100.00
1736;BME280;865;53.672;10.250;2022-09-09T04:35:38;100482.06;;;12.96;100.00
1736;BME280;865;53.672;10.250;2022-09-09T04:38:05;100474.84;;;12.77;100.00
1736;BME280;865;53.672;10.250;2022-09-09T04:40:35;100487.00;;;12.78;100.00
1736;BME280;865;53.672;10.250;2022-09-09T04:43:02;100475.69;;;12.78;100.00
1736;BME280;865;53.672;10.250;2022-09-09T04:45:30;100482.75;;;12.76;100.00
1736;BME280;865;53.672;10.250;2022-09-09T04:47:57;100479.16;;;12.78;100.00
1736;BME280;865;53.672;10.250;2022-09-09T04:50:23;100482.88;;;12.71;100.00
1736;BME280;865;53.672;10.250;2022-09-09T04:52:51;100476.00;;;12.69;100.00
1736;BME280;865;53.672;10.250;2022-09-09T04:55:17;100488.94;;;12.73;100.00
1736;BME280;865;53.672;10.250;2022-09-09T04:57:43;100487.97;;;12.76;100.00
1736;BME280;865;53.672;10.250;2022-09-09T05:00:10;100490.00;;;12.68;100.00
1736;BME280;865;53.672;10.250;2022-09-09T05:02:37;100490.94;;;12.65;100.00
1736;BME280;865;53.672;10.250;2022-09-09T05:05:05;100491.75;;;12.67;100.00
1736;BME280;865;53.672;10.250;2022-09-09T05:07:32;100487.19;;;12.72;100.00
1736;BME280;865;53.672;10.250;2022-09-09T05:09:58;100490.53;;;12.77;100.00
1736;BME280;865;53.672;10.250;2022-09-09T05:12:25;100486.97;;;12.80;100.00
1736;BME280;865;53.672;10.250;2022-09-09T05:14:52;100481.56;;;12.85;100.00
1736;BME280;865;53.672;10.250;2022-09-09T05:17:18;100492.22;;;12.78;100.00
1736;BME280;865;53.672;10.250;2022-09-09T05:19:45;100487.69;;;12.85;100.00
1736;BME280;865;53.672;10.250;2022-09-09T05:22:11;100499.00;;;12.86;100.00
1736;BME280;865;53.672;10.250;2022-09-09T05:24:40;100499.00;;;12.86;100.00
1736;BME280;865;53.672;10.250;2022-09-09T05:27:06;100497.84;;;12.94;100.00
1736;BME280;865;53.672;10.250;2022-09-09T05:29:33;100497.06;;;12.91;100.00
1736;BME280;865;53.672;10.250;2022-09-09T05:32:02;100493.00;;;13.09;100.00
1736;BME280;865;53.672;10.250;2022-09-09T05:34:29;100492.44;;;12.99;100.00
1736;BME280;865;53.672;10.250;2022-09-09T05:36:55;100487.16;;;13.00;100.00
1736;BME280;865;53.672;10.250;2022-09-09T05:39:21;100487.19;;;12.99;100.00
1736;BME280;865;53.672;10.250;2022-09-09T05:41:48;100492.44;;;12.99;100.00
1736;BME280;865;53.672;10.250;2022-09-09T05:44:14;100498.28;;;13.07;100.00
1736;BME280;865;53.672;10.250;2022-09-09T05:46:40;100496.03;;;13.21;100.00
1736;BME280;865;53.672;10.250;2022-09-09T05:49:07;100491.59;;;13.25;100.00
1736;BME280;865;53.672;10.250;2022-09-09T05:51:34;100499.03;;;13.11;100.00
1736;BME280;865;53.672;10.250;2022-09-09T05:54:00;100495.31;;;13.18;100.00
1736;BME280;865;53.672;10.250;2022-09-09T05:56:28;100491.06;;;13.14;100.00
1736;BME280;865;53.672;10.250;2022-09-09T05:58:55;100503.94;;;13.20;100.00
1736;BME280;865;53.672;10.250;2022-09-09T06:01:28;100498.66;;;13.21;100.00
1736;BME280;865;53.672;10.250;2022-09-09T06:03:54;100507.25;;;13.27;100.00
1736;BME280;865;53.672;10.250;2022-09-09T06:06:27;100510.63;;;13.30;100.00
1736;BME280;865;53.672;10.250;2022-09-09T06:08:57;100509.47;;;13.37;100.00
1736;BME280;865;53.672;10.250;2022-09-09T06:11:29;100518.91;;;13.43;100.00
1736;BME280;865;53.672;10.250;2022-09-09T06:13:57;100518.88;;;13.44;100.00
1736;BME280;865;53.672;10.250;2022-09-09T06:16:25;100519.53;;;13.50;100.00
1736;BME280;865;53.672;10.250;2022-09-09T06:18:53;100517.47;;;13.34;100.00
1736;BME280;865;53.672;10.250;2022-09-09T06:21:22;100526.88;;;13.40;100.00
1736;BME280;865;53.672;10.250;2022-09-09T06:23:50;100518.97;;;13.41;100.00
1736;BME280;865;53.672;10.250;2022-09-09T06:26:36;100532.09;;;13.40;100.00
1736;BME280;865;53.672;10.250;2022-09-09T06:29:03;100530.19;;;13.45;100.00
1736;BME280;865;53.672;10.250;2022-09-09T06:31:31;100533.59;;;13.47;100.00
1736;BME280;865;53.672;10.250;2022-09-09T06:34:00;100534.59;;;13.44;100.00
1736;BME280;865;53.672;10.250;2022-09-09T06:36:29;100545.47;;;13.57;100.00
1736;BME280;865;53.672;10.250;2022-09-09T06:38:56;100541.53;;;13.45;100.00
1736;BME280;865;53.672;10.250;2022-09-09T06:41:25;100543.00;;;13.53;100.00
1736;BME280;865;53.672;10.250;2022-09-09T06:43:53;100540.72;;;13.68;100.00
1736;BME280;865;53.672;10.250;2022-09-09T06:46:21;100539.81;;;13.70;100.00
1736;BME280;865;53.672;10.250;2022-09-09T06:48:48;100542.28;;;13.74;100.00
1736;BME280;865;53.672;10.250;2022-09-09T06:51:17;100536.22;;;13.72;100.00
1736;BME280;865;53.672;10.250;2022-09-09T06:53:45;100536.47;;;13.89;100.00
1736;BME280;865;53.672;10.250;2022-09-09T06:56:31;100538.09;;;14.16;100.00
1736;BME280;865;53.672;10.250;2022-09-09T06:58:59;100533.97;;;14.32;100.00
1736;BME280;865;53.672;10.250;2022-09-09T07:01:31;100538.63;;;14.25;100.00
1736;BME280;865;53.672;10.250;2022-09-09T07:03:59;100534.91;;;14.31;100.00
1736;BME280;865;53.672;10.250;2022-09-09T07:06:28;100532.16;;;14.34;100.00
1736;BME280;865;53.672;10.250;2022-09-09T07:09:17;100537.19;;;14.40;100.00
1736;BME280;865;53.672;10.250;2022-09-09T07:11:49;100532.66;;;14.44;100.00
1736;BME280;865;53.672;10.250;2022-09-09T07:14:17;100538.63;;;14.47;100.00
1736;BME280;865;53.672;10.250;2022-09-09T07:16:44;100534.66;;;14.37;100.00
1736;BME280;865;53.672;10.250;2022-09-09T07:19:12;100541.13;;;14.50;100.00
1736;BME280;865;53.672;10.250;2022-09-09T07:21:40;100538.75;;;14.44;100.00
1736;BME280;865;53.672;10.250;2022-09-09T07:24:07;100538.59;;;14.49;100.00
1736;BME280;865;53.672;10.250;2022-09-09T07:26:38;100536.25;;;14.41;100.00
1736;BME280;865;53.672;10.250;2022-09-09T07:29:04;100543.66;;;14.53;100.00
1736;BME280;865;53.672;10.250;2022-09-09T07:31:33;100545.88;;;14.64;100.00
1736;BME280;865;53.672;10.250;2022-09-09T07:34:02;100544.72;;;14.71;100.00
1736;BME280;865;53.672;10.250;2022-09-09T07:36:33;100549.66;;;14.79;100.00
1736;BME280;865;53.672;10.250;2022-09-09T07:39:04;100549.53;;;14.82;100.00
1736;BME280;865;53.672;10.250;2022-09-09T07:41:34;100548.81;;;14.78;100.00
1736;BME280;865;53.672;10.250;2022-09-09T07:44:07;100548.06;;;14.97;100.00
1736;BME280;865;53.672;10.250;2022-09-09T07:46:35;100551.97;;;15.09;100.00
1736;BME280;865;53.672;10.250;2022-09-09T07:49:02;100552.59;;;15.14;100.00
1736;BME280;865;53.672;10.250;2022-09-09T07:51:32;100549.50;;;15.04;100.00
1736;BME280;865;53.672;10.250;2022-09-09T07:54:01;100548.44;;;15.30;100.00
1736;BME280;865;53.672;10.250;2022-09-09T07:56:29;100555.13;;;15.37;100.00
1736;BME280;865;53.672;10.250;2022-09-09T07:58:59;100554.88;;;15.23;100.00
1736;BME280;865;53.672;10.250;2022-09-09T08:01:30;100559.25;;;15.22;100.00
1736;BME280;865;53.672;10.250;2022-09-09T08:03:59;100564.47;;;15.24;100.00
1736;BME280;865;53.672;10.250;2022-09-09T08:06:28;100565.25;;;15.26;100.00
1736;BME280;865;53.672;10.250;2022-09-09T08:08:55;100553.94;;;15.24;100.00
1736;BME280;865;53.672;10.250;2022-09-09T08:11:23;100558.63;;;15.38;100.00
1736;BME280;865;53.672;10.250;2022-09-09T08:13:50;100557.09;;;15.53;100.00
1736;BME280;865;53.672;10.250;2022-09-09T08:16:23;100556.97;;;15.56;100.00
1736;BME280;865;53.672;10.250;2022-09-09T08:18:51;100557.50;;;15.84;100.00
1736;BME280;865;53.672;10.250;2022-09-09T08:21:21;100553.28;;;16.01;100.00
1736;BME280;865;53.672;10.250;2022-09-09T08:23:47;100556.56;;;15.85;100.00
1736;BME280;865;53.672;10.250;2022-09-09T08:26:27;100557.72;;;15.80;100.00
1736;BME280;865;53.672;10.250;2022-09-09T08:28:56;100547.66;;;15.69;100.00
1736;BME280;865;53.672;10.250;2022-09-09T08:31:26;100549.97;;;15.77;100.00
1736;BME280;865;53.672;10.250;2022-09-09T08:33:55;100564.34;;;15.88;100.00
1736;BME280;865;53.672;10.250;2022-09-09T08:36:24;100558.81;;;15.94;100.00
1736;BME280;865;53.672;10.250;2022-09-09T08:38:54;100561.06;;;16.02;100.00
1736;BME280;865;53.672;10.250;2022-09-09T08:58:01;100578.31;;;16.28;100.00
1736;BME280;865;53.672;10.250;2022-09-09T09:01:28;100574.00;;;16.27;100.00
1736;BME280;865;53.672;10.250;2022-09-09T09:09:06;100572.03;;;16.50;100.00
1736;BME280;865;53.672;10.250;2022-09-09T09:11:38;100571.16;;;16.68;100.00
1736;BME280;865;53.672;10.250;2022-09-09T09:14:21;100571.53;;;16.41;100.00
1736;BME280;865;53.672;10.250;2022-09-09T09:16:58;100571.34;;;16.27;100.00
1736;BME280;865;53.672;10.250;2022-09-09T09:19:27;100569.94;;;16.39;100.00
1736;BME280;865;53.672;10.250;2022-09-09T09:29:58;100577.81;;;16.77;100.00
1736;BME280;865;53.672;10.250;2022-09-09T09:32:55;100578.44;;;16.82;100.00
1736;BME280;865;53.672;10.250;2022-09-09T09:35:24;100582.75;;;17.02;100.00
1736;BME280;865;53.672;10.250;2022-09-09T09:37:51;100577.25;;;17.06;100.00
1736;BME280;865;53.672;10.250;2022-09-09T09:40:48;100578.25;;;17.04;100.00
1736;BME280;865;53.672;10.250;2022-09-09T09:43:23;100579.13;;;17.04;100.00
1736;BME280;865;53.672;10.250;2022-09-09T09:45:50;100577.34;;;17.05;100.00
1736;BME280;865;53.672;10.250;2022-09-09T09:48:37;100574.72;;;16.86;99.69
1736;BME280;865;53.672;10.250;2022-09-09T09:51:10;100575.88;;;16.80;99.28
1736;BME280;865;53.672;10.250;2022-09-09T09:53:38;100578.69;;;16.95;100.00
1736;BME280;865;53.672;10.250;2022-09-09T09:56:07;100571.53;;;16.79;100.00
1736;BME280;865;53.672;10.250;2022-09-09T10:01:24;100577.94;;;16.93;100.00
1736;BME280;865;53.672;10.250;2022-09-09T10:04:03;100577.31;;;16.88;97.83
1736;BME280;865;53.672;10.250;2022-09-09T10:06:39;100574.25;;;17.14;98.87
1736;BME280;865;53.672;10.250;2022-09-09T10:09:25;100584.94;;;17.11;99.43
1736;BME280;865;53.672;10.250;2022-09-09T10:14:54;100587.41;;;17.14;98.93
1736;BME280;865;53.672;10.250;2022-09-09T10:22:47;100570.75;;;17.48;94.82
1736;BME280;865;53.672;10.250;2022-09-09T10:25:24;100572.75;;;17.78;95.78
1736;BME280;865;53.672;10.250;2022-09-09T10:28:14;100568.91;;;18.01;93.99
1736;BME280;865;53.672;10.250;2022-09-09T10:33:31;100566.94;;;17.89;92.48
1736;BME280;865;53.672;10.250;2022-09-09T10:36:21;100565.09;;;18.07;94.04
1736;BME280;865;53.672;10.250;2022-09-09T10:38:56;100559.53;;;18.11;93.99
1736;BME280;865;53.672;10.250;2022-09-09T10:55:23;100552.47;;;17.96;88.39
1736;BME280;865;53.672;10.250;2022-09-09T10:57:58;100548.00;;;18.30;90.12
1736;BME280;865;53.672;10.250;2022-09-09T11:00:37;100539.56;;;18.39;87.17
1736;BME280;865;53.672;10.250;2022-09-09T11:03:05;100549.28;;;18.38;84.47
1736;BME280;865;53.672;10.250;2022-09-09T11:06:06;100544.59;;;18.28;83.84
1736;BME280;865;53.672;10.250;2022-09-09T11:08:35;100546.53;;;18.56;84.45
1736;BME280;865;53.672;10.250;2022-09-09T11:11:32;100543.38;;;18.97;85.08
1736;BME280;865;53.672;10.250;2022-09-09T11:14:01;100552.16;;;18.97;83.16
1736;BME280;865;53.672;10.250;2022-09-09T11:17:06;100549.78;;;18.77;85.26
1736;BME280;865;53.672;10.250;2022-09-09T11:19:31;100550.75;;;18.76;83.74
1736;BME280;865;53.672;10.250;2022-09-09T11:22:03;100550.09;;;18.71;84.82
1736;BME280;865;53.672;10.250;2022-09-09T11:24:45;100554.41;;;18.57;85.86
1736;BME280;865;53.672;10.250;2022-09-09T11:27:22;100555.31;;;18.40;85.90
1736;BME280;865;53.672;10.250;2022-09-09T11:30:05;100551.56;;;18.29;86.64
1736;BME280;865;53.672;10.250;2022-09-09T11:32:52;100554.31;;;18.43;87.87
1736;BME280;865;53.672;10.250;2022-09-09T11:38:21;100560.44;;;18.28;85.93
1736;BME280;865;53.672;10.250;2022-09-09T11:41:00;100564.03;;;18.27;86.34
1736;BME280;865;53.672;10.250;2022-09-09T11:43:30;100565.78;;;18.10;86.29
1736;BME280;865;53.672;10.250;2022-09-09T11:46:00;100561.16;;;17.98;86.21
1736;BME280;865;53.672;10.250;2022-09-09T11:48:34;100570.69;;;18.01;86.62
1736;BME280;865;53.672;10.250;2022-09-09T11:51:09;100576.50;;;18.07;87.24
1736;BME280;865;53.672;10.250;2022-09-09T11:53:56;100568.25;;;18.13;87.13
1736;BME280;865;53.672;10.250;2022-09-09T11:59:27;100577.59;;;18.03;87.90
1736;BME280;865;53.672;10.250;2022-09-09T12:02:14;100568.69;;;18.21;88.81
1736;BME280;865;53.672;10.250;2022-09-09T12:04:55;100571.78;;;18.30;87.98
1736;BME280;865;53.672;10.250;2022-09-09T12:07:34;100570.09;;;18.44;87.99
1736;BME280;865;53.672;10.250;2022-09-09T12:10:25;100569.66;;;18.68;86.76
1736;BME280;865;53.672;10.250;2022-09-09T12:12:52;100565.81;;;18.74;85.71
1736;BME280;865;53.672;10.250;2022-09-09T12:15:25;100561.16;;;19.09;86.41
1736;BME280;865;53.672;10.250;2022-09-09T12:17:56;100568.06;;;19.11;82.80
1736;BME280;865;53.672;10.250;2022-09-09T12:20:34;100566.50;;;18.93;83.83
1736;BME280;865;53.672;10.250;2022-09-09T12:23:31;100559.25;;;18.65;85.52
1736;BME280;865;53.672;10.250;2022-09-09T12:26:25;100560.88;;;18.83;84.23
1736;BME280;865;53.672;10.250;2022-09-09T12:32:09;100566.00;;;19.17;85.94
1736;BME280;865;53.672;10.250;2022-09-09T12:34:43;100571.78;;;19.23;83.51
1736;BME280;865;53.672;10.250;2022-09-09T12:37:33;100575.03;;;19.12;83.36
1736;BME280;865;53.672;10.250;2022-09-09T12:40:14;100570.34;;;19.18;82.86
1736;BME280;865;53.672;10.250;2022-09-09T12:42:44;100572.97;;;18.87;83.89
1736;BME280;865;53.672;10.250;2022-09-09T12:45:18;100570.69;;;18.65;85.31
1736;BME280;865;53.672;10.250;2022-09-09T12:47:49;100570.19;;;18.75;86.54
1736;BME280;865;53.672;10.250;2022-09-09T12:50:31;100560.03;;;18.83;87.43
1736;BME280;865;53.672;10.250;2022-09-09T12:53:00;100563.09;;;18.59;85.17
1736;BME280;865;53.672;10.250;2022-09-09T12:55:30;100560.53;;;18.42;85.27
1736;BME280;865;53.672;10.250;2022-09-09T12:58:00;100562.75;;;18.34;86.41
1736;BME280;865;53.672;10.250;2022-09-09T13:00:31;100562.56;;;18.37;87.64
1736;BME280;865;53.672;10.250;2022-09-09T13:03:00;100560.50;;;18.10;88.96
1736;BME280;865;53.672;10.250;2022-09-09T13:05:33;100560.75;;;18.06;92.62
1736;BME280;865;53.672;10.250;2022-09-09T13:08:02;100566.41;;;17.82;93.02
1736;BME280;865;53.672;10.250;2022-09-09T13:10:32;100569.41;;;17.74;93.25
1736;BME280;865;53.672;10.250;2022-09-09T13:13:27;100559.34;;;17.65;93.82
1736;BME280;865;53.672;10.250;2022-09-09T13:15:57;100573.75;;;17.93;94.95
1736;BME280;865;53.672;10.250;2022-09-09T13:18:34;100565.78;;;18.10;94.67
1736;BME280;865;53.672;10.250;2022-09-09T13:21:01;100569.72;;;18.19;94.78
1736;BME280;865;53.672;10.250;2022-09-09T13:23:34;100573.97;;;18.21;95.40
1736;BME280;865;53.672;10.250;2022-09-09T13:26:05;100569.06;;;17.98;94.94
1736;BME280;865;53.672;10.250;2022-09-09T13:28:32;100574.03;;;18.04;95.49
1736;BME280;865;53.672;10.250;2022-09-09T13:31:05;100566.28;;;18.01;94.87
1736;BME280;865;53.672;10.250;2022-09-09T13:36:02;100568.69;;;18.21;95.90
1736;BME280;865;53.672;10.250;2022-09-09T13:38:33;100571.41;;;18.20;94.78
1736;BME280;865;53.672;10.250;2022-09-09T13:41:03;100575.31;;;18.13;95.19
1736;BME280;865;53.672;10.250;2022-09-09T13:43:36;100587.22;;;18.04;96.06
1736;BME280;865;53.672;10.250;2022-09-09T13:46:21;100590.41;;;17.93;96.27
1736;BME280;865;53.672;10.250;2022-09-09T13:48:55;100593.38;;;17.87;97.75
1736;BME280;865;53.672;10.250;2022-09-09T13:51:47;100596.75;;;17.91;98.81
1736;BME280;865;53.672;10.250;2022-09-09T13:54:16;100601.69;;;17.62;99.08
1736;BME280;865;53.672;10.250;2022-09-09T13:56:43;100611.94;;;17.68;100.00
1736;BME280;865;53.672;10.250;2022-09-09T13:59:12;100617.16;;;17.52;100.00
1736;BME280;865;53.672;10.250;2022-09-09T14:01:39;100618.94;;;17.52;100.00
1736;BME280;865;53.672;10.250;2022-09-09T14:04:05;100612.19;;;17.46;100.00
1736;BME280;865;53.672;10.250;2022-09-09T14:06:34;100603.34;;;17.47;100.00
1736;BME280;865;53.672;10.250;2022-09-09T14:09:04;100605.03;;;17.48;100.00
1736;BME280;865;53.672;10.250;2022-09-09T14:11:30;100604.41;;;17.61;100.00
1736;BME280;865;53.672;10.250;2022-09-09T14:13:56;100607.03;;;17.61;100.00
1736;BME280;865;53.672;10.250;2022-09-09T14:16:23;100615.81;;;17.61;100.00
1736;BME280;865;53.672;10.250;2022-09-09T14:18:49;100613.88;;;17.47;100.00
1736;BME280;865;53.672;10.250;2022-09-09T14:21:16;100616.75;;;17.60;100.00
1736;BME280;865;53.672;10.250;2022-09-09T14:23:42;100610.16;;;17.69;100.00
1736;BME280;865;53.672;10.250;2022-09-09T14:26:08;100603.72;;;17.57;100.00
1736;BME280;865;53.672;10.250;2022-09-09T14:28:36;100604.81;;;17.53;100.00
1736;BME280;865;53.672;10.250;2022-09-09T14:31:20;100596.28;;;17.48;100.00
1736;BME280;865;53.672;10.250;2022-09-09T14:33:47;100600.84;;;17.27;100.00
1736;BME280;865;53.672;10.250;2022-09-09T14:36:13;100604.16;;;17.30;100.00
1736;BME280;865;53.672;10.250;2022-09-09T14:38:39;100602.25;;;17.34;100.00
1736;BME280;865;53.672;10.250;2022-09-09T14:41:06;100602.94;;;17.38;100.00
1736;BME280;865;53.672;10.250;2022-09-09T14:43:33;100600.94;;;17.25;100.00
1736;BME280;865;53.672;10.250;2022-09-09T14:46:07;100605.19;;;17.11;100.00
1736;BME280;865;53.672;10.250;2022-09-09T14:48:34;100601.34;;;16.99;100.00
1736;BME280;865;53.672;10.250;2022-09-09T14:51:09;100599.88;;;16.93;100.00
1736;BME280;865;53.672;10.250;2022-09-09T14:53:35;100607.63;;;16.77;100.00
1736;BME280;865;53.672;10.250;2022-09-09T14:56:08;100599.38;;;16.66;100.00
1736;BME280;865;53.672;10.250;2022-09-09T14:58:35;100604.66;;;16.66;100.00
1736;BME280;865;53.672;10.250;2022-09-09T15:01:09;100601.38;;;16.61;100.00
1736;BME280;865;53.672;10.250;2022-09-09T15:03:38;100604.22;;;16.37;100.00
1736;BME280;865;53.672;10.250;2022-09-09T15:06:09;100606.19;;;16.32;100.00
1736;BME280;865;53.672;10.250;2022-09-09T15:08:37;100614.22;;;16.29;100.00